PWSweather.com
Personal Weather Stations
Station Observations
WXGLH1124
Southern Oaks, Indianapolis, IN 46217

Southern OaksIndianapolis, IN 46217

Lat: 39.65113, Lon: -86.16866

Elevation: 720

Station Type: Vantage Pro2

High Low Average
Temperature 30.7°F-0.7°C 11.8°F-11.2°C 21.2°F-6.0°C
Dew Point 16.2°F-8.8°C 6.1°F-14.4°C 11.1°F-11.6°C
Winds 11.0 mph 17.7 kmh Calm Calm 3.0 mph WSW4.8 kmh WSW
Wind Gusts 15.0 mph24.1 kmh -- 7.0 mph11.3 kmh
Humidity 78% 50% 65%
Pressure 30.51 in1033.2 mb 30.36 in1028.1 mb -
Precipitation 0.00 in0.0 mm - -
Hour Temp Dew Point Humidity Winds Wind Gusts Pressure Precip Precip Rate Daily Precip Total
12:00 AM 17.2°F-8.2°C 10.1°F-12.2°C 73% Calm Calm 3.0 mph4.8 kmh 30.39 in1029.1 mb 0.00 in0.0 mm 0.00 in0.0 mm 0.00 in0.0 mm
12:04 AM 17.2°F-8.2°C 10.1°F-12.2°C 73% 6.0 mph W9.7 kmh W 7.0 mph11.3 kmh 30.39 in1029.1 mb 0.00 in0.0 mm 0.00 in0.0 mm 0.00 in0.0 mm
12:10 AM 17.3°F-8.2°C 10.1°F-12.2°C 73% 6.0 mph W9.7 kmh W 6.0 mph9.7 kmh 30.39 in1029.1 mb 0.00 in0.0 mm 0.00 in0.0 mm 0.00 in0.0 mm
12:15 AM 17.5°F-8.1°C 10.3°F-12.1°C 73% 3.0 mph WSW4.8 kmh WSW 7.0 mph11.3 kmh 30.39 in1029.1 mb 0.00 in0.0 mm 0.00 in0.0 mm 0.00 in0.0 mm
12:20 AM 17.7°F-7.9°C 10.5°F-11.9°C 73% 1.0 mph SW1.6 kmh SW 14.0 mph22.5 kmh 30.39 in1029.1 mb 0.00 in0.0 mm 0.00 in0.0 mm 0.00 in0.0 mm
12:25 AM 17.9°F-7.8°C 10.7°F-11.8°C 73% 5.0 mph SW8.0 kmh SW 9.0 mph14.5 kmh 30.39 in1029.1 mb 0.00 in0.0 mm 0.00 in0.0 mm 0.00 in0.0 mm
12:29 AM 17.9°F-7.8°C 10.7°F-11.8°C 73% 4.0 mph W6.4 kmh W 6.0 mph9.7 kmh 30.40 in1029.5 mb 0.00 in0.0 mm 0.00 in0.0 mm 0.00 in0.0 mm
12:35 AM 18.0°F-7.8°C 10.5°F-11.9°C 72% 4.0 mph W6.4 kmh W 9.0 mph14.5 kmh 30.40 in1029.5 mb 0.00 in0.0 mm 0.00 in0.0 mm 0.00 in0.0 mm
12:40 AM 18.1°F-7.7°C 10.6°F-11.9°C 72% 11.0 mph NW17.7 kmh NW 11.0 mph17.7 kmh 30.40 in1029.5 mb 0.00 in0.0 mm 0.00 in0.0 mm 0.00 in0.0 mm
12:45 AM 18.2°F-7.7°C 10.7°F-11.8°C 72% 4.0 mph WNW6.4 kmh WNW 4.0 mph6.4 kmh 30.40 in1029.5 mb 0.00 in0.0 mm 0.00 in0.0 mm 0.00 in0.0 mm
12:50 AM 18.2°F-7.7°C 10.4°F-12.0°C 71% 4.0 mph NW6.4 kmh NW 7.0 mph11.3 kmh 30.40 in1029.5 mb 0.00 in0.0 mm 0.00 in0.0 mm 0.00 in0.0 mm
12:55 AM 18.1°F-7.7°C 10.3°F-12.1°C 71% 2.0 mph WNW3.2 kmh WNW 11.0 mph17.7 kmh 30.40 in1029.5 mb 0.00 in0.0 mm 0.00 in0.0 mm 0.00 in0.0 mm
01:00 AM 18.2°F-7.7°C 10.1°F-12.2°C 70% 8.0 mph WSW12.9 kmh WSW 9.0 mph14.5 kmh 30.40 in1029.5 mb 0.00 in0.0 mm 0.00 in0.0 mm 0.00 in0.0 mm
01:05 AM 18.3°F-7.6°C 10.2°F-12.1°C 70% 3.0 mph W4.8 kmh W 11.0 mph17.7 kmh 30.41 in1029.8 mb 0.00 in0.0 mm 0.00 in0.0 mm 0.00 in0.0 mm
01:10 AM 18.3°F-7.6°C 9.9°F-12.3°C 69% 2.0 mph NW3.2 kmh NW 7.0 mph11.3 kmh 30.41 in1029.8 mb 0.00 in0.0 mm 0.00 in0.0 mm 0.00 in0.0 mm
01:15 AM 18.3°F-7.6°C 9.9°F-12.3°C 69% 2.0 mph NW3.2 kmh NW 12.0 mph19.3 kmh 30.41 in1029.8 mb 0.00 in0.0 mm 0.00 in0.0 mm 0.00 in0.0 mm
01:20 AM 18.2°F-7.7°C 9.8°F-12.3°C 69% 6.0 mph W9.7 kmh W 11.0 mph17.7 kmh 30.41 in1029.8 mb 0.00 in0.0 mm 0.00 in0.0 mm 0.00 in0.0 mm
01:25 AM 18.1°F-7.7°C 9.3°F-12.6°C 68% 5.0 mph WNW8.0 kmh WNW 11.0 mph17.7 kmh 30.41 in1029.8 mb 0.00 in0.0 mm 0.00 in0.0 mm 0.00 in0.0 mm
01:29 AM 18.0°F-7.8°C 9.2°F-12.7°C 68% 3.0 mph NW4.8 kmh NW 6.0 mph9.7 kmh 30.41 in1029.8 mb 0.00 in0.0 mm 0.00 in0.0 mm 0.00 in0.0 mm
01:35 AM 17.9°F-7.8°C 8.8°F-12.9°C 67% 4.0 mph WNW6.4 kmh WNW 10.0 mph16.1 kmh 30.41 in1029.8 mb 0.00 in0.0 mm 0.00 in0.0 mm 0.00 in0.0 mm
01:40 AM 17.8°F-7.9°C 8.7°F-12.9°C 67% 4.0 mph W6.4 kmh W 7.0 mph11.3 kmh 30.40 in1029.5 mb 0.00 in0.0 mm 0.00 in0.0 mm 0.00 in0.0 mm
01:45 AM 17.7°F-7.9°C 8.6°F-13.0°C 67% 3.0 mph NW4.8 kmh NW 6.0 mph9.7 kmh 30.41 in1029.8 mb 0.00 in0.0 mm 0.00 in0.0 mm 0.00 in0.0 mm
01:49 AM 17.5°F-8.1°C 8.4°F-13.1°C 67% 5.0 mph NW8.0 kmh NW 6.0 mph9.7 kmh 30.41 in1029.8 mb 0.00 in0.0 mm 0.00 in0.0 mm 0.00 in0.0 mm
01:55 AM 17.4°F-8.1°C 8.3°F-13.2°C 67% 3.0 mph W4.8 kmh W 8.0 mph12.9 kmh 30.41 in1029.8 mb 0.00 in0.0 mm 0.00 in0.0 mm 0.00 in0.0 mm
02:00 AM 17.3°F-8.2°C 8.2°F-13.2°C 67% 1.0 mph WNW1.6 kmh WNW 9.0 mph14.5 kmh 30.41 in1029.8 mb 0.00 in0.0 mm 0.00 in0.0 mm 0.00 in0.0 mm
02:05 AM 17.2°F-8.2°C 8.1°F-13.3°C 67% 2.0 mph NW3.2 kmh NW 8.0 mph12.9 kmh 30.40 in1029.5 mb 0.00 in0.0 mm 0.00 in0.0 mm 0.00 in0.0 mm
02:10 AM 17.1°F-8.3°C 8.1°F-13.3°C 67% 2.0 mph NW3.2 kmh NW 10.0 mph16.1 kmh 30.40 in1029.5 mb 0.00 in0.0 mm 0.00 in0.0 mm 0.00 in0.0 mm
02:15 AM 17.0°F-8.3°C 8.3°F-13.2°C 68% 3.0 mph WNW4.8 kmh WNW 4.0 mph6.4 kmh 30.40 in1029.5 mb 0.00 in0.0 mm 0.00 in0.0 mm 0.00 in0.0 mm
02:20 AM 17.0°F-8.3°C 8.3°F-13.2°C 68% 8.0 mph W12.9 kmh W 10.0 mph16.1 kmh 30.40 in1029.5 mb 0.00 in0.0 mm 0.00 in0.0 mm 0.00 in0.0 mm
02:24 AM 17.0°F-8.3°C 8.3°F-13.2°C 68% 4.0 mph SW6.4 kmh SW 5.0 mph8.0 kmh 30.41 in1029.8 mb 0.00 in0.0 mm 0.00 in0.0 mm 0.00 in0.0 mm
02:30 AM 16.9°F-8.4°C 8.2°F-13.2°C 68% 3.0 mph WSW4.8 kmh WSW 7.0 mph11.3 kmh 30.40 in1029.5 mb 0.00 in0.0 mm 0.00 in0.0 mm 0.00 in0.0 mm
02:35 AM 16.9°F-8.4°C 8.2°F-13.2°C 68% 3.0 mph NW4.8 kmh NW 8.0 mph12.9 kmh 30.41 in1029.8 mb 0.00 in0.0 mm 0.00 in0.0 mm 0.00 in0.0 mm
02:40 AM 16.9°F-8.4°C 8.5°F-13.1°C 69% 1.0 mph NW1.6 kmh NW 8.0 mph12.9 kmh 30.41 in1029.8 mb 0.00 in0.0 mm 0.00 in0.0 mm 0.00 in0.0 mm
02:45 AM 16.8°F-8.4°C 8.4°F-13.1°C 69% Calm Calm 3.0 mph4.8 kmh 30.41 in1029.8 mb 0.00 in0.0 mm 0.00 in0.0 mm 0.00 in0.0 mm
02:50 AM 16.8°F-8.4°C 8.4°F-13.1°C 69% 5.0 mph NW8.0 kmh NW 5.0 mph8.0 kmh 30.41 in1029.8 mb 0.00 in0.0 mm 0.00 in0.0 mm 0.00 in0.0 mm
02:55 AM 16.7°F-8.5°C 8.6°F-13.0°C 70% 2.0 mph NW3.2 kmh NW 4.0 mph6.4 kmh 30.41 in1029.8 mb 0.00 in0.0 mm 0.00 in0.0 mm 0.00 in0.0 mm
03:00 AM 16.7°F-8.5°C 8.6°F-13.0°C 70% 1.0 mph NW1.6 kmh NW 4.0 mph6.4 kmh 30.41 in1029.8 mb 0.00 in0.0 mm 0.00 in0.0 mm 0.00 in0.0 mm
03:05 AM 16.6°F-8.6°C 8.5°F-13.1°C 70% 3.0 mph WSW4.8 kmh WSW 4.0 mph6.4 kmh 30.41 in1029.8 mb 0.00 in0.0 mm 0.00 in0.0 mm 0.00 in0.0 mm
03:10 AM 16.6°F-8.6°C 8.5°F-13.1°C 70% 3.0 mph NW4.8 kmh NW 6.0 mph9.7 kmh 30.41 in1029.8 mb 0.00 in0.0 mm 0.00 in0.0 mm 0.00 in0.0 mm
03:15 AM 16.6°F-8.6°C 8.9°F-12.8°C 71% 4.0 mph NW6.4 kmh NW 4.0 mph6.4 kmh 30.42 in1030.1 mb 0.00 in0.0 mm 0.00 in0.0 mm 0.00 in0.0 mm
03:20 AM 16.5°F-8.6°C 8.8°F-12.9°C 71% 2.0 mph WNW3.2 kmh WNW 8.0 mph12.9 kmh 30.42 in1030.1 mb 0.00 in0.0 mm 0.00 in0.0 mm 0.00 in0.0 mm
03:25 AM 16.4°F-8.7°C 8.3°F-13.2°C 70% 7.0 mph NW11.3 kmh NW 9.0 mph14.5 kmh 30.42 in1030.1 mb 0.00 in0.0 mm 0.00 in0.0 mm 0.00 in0.0 mm
03:30 AM 16.3°F-8.7°C 8.3°F-13.2°C 70% 5.0 mph SW8.0 kmh SW 14.0 mph22.5 kmh 30.42 in1030.1 mb 0.00 in0.0 mm 0.00 in0.0 mm 0.00 in0.0 mm
03:34 AM 16.3°F-8.7°C 8.3°F-13.2°C 70% 3.0 mph WNW4.8 kmh WNW 7.0 mph11.3 kmh 30.42 in1030.1 mb 0.00 in0.0 mm 0.00 in0.0 mm 0.00 in0.0 mm
03:40 AM 16.2°F-8.8°C 8.5°F-13.1°C 71% 2.0 mph NW3.2 kmh NW 7.0 mph11.3 kmh 30.42 in1030.1 mb 0.00 in0.0 mm 0.00 in0.0 mm 0.00 in0.0 mm
03:45 AM 16.1°F-8.8°C 8.4°F-13.1°C 71% 3.0 mph W4.8 kmh W 10.0 mph16.1 kmh 30.42 in1030.1 mb 0.00 in0.0 mm 0.00 in0.0 mm 0.00 in0.0 mm
03:49 AM 16.1°F-8.8°C 8.4°F-13.1°C 71% 4.0 mph NW6.4 kmh NW 7.0 mph11.3 kmh 30.42 in1030.1 mb 0.00 in0.0 mm 0.00 in0.0 mm 0.00 in0.0 mm
03:55 AM 16.1°F-8.8°C 8.4°F-13.1°C 71% 7.0 mph SW11.3 kmh SW 7.0 mph11.3 kmh 30.42 in1030.1 mb 0.00 in0.0 mm 0.00 in0.0 mm 0.00 in0.0 mm
04:00 AM 16.1°F-8.8°C 8.7°F-12.9°C 72% 1.0 mph W1.6 kmh W 8.0 mph12.9 kmh 30.42 in1030.1 mb 0.00 in0.0 mm 0.00 in0.0 mm 0.00 in0.0 mm
04:05 AM 16.1°F-8.8°C 8.7°F-12.9°C 72% 2.0 mph W3.2 kmh W 3.0 mph4.8 kmh 30.42 in1030.1 mb 0.00 in0.0 mm 0.00 in0.0 mm 0.00 in0.0 mm
04:09 AM 16.1°F-8.8°C 8.7°F-12.9°C 72% 4.0 mph W6.4 kmh W 4.0 mph6.4 kmh 30.42 in1030.1 mb 0.00 in0.0 mm 0.00 in0.0 mm 0.00 in0.0 mm
04:15 AM 16.0°F-8.9°C 8.6°F-13.0°C 72% 1.0 mph WSW1.6 kmh WSW 8.0 mph12.9 kmh 30.42 in1030.1 mb 0.00 in0.0 mm 0.00 in0.0 mm 0.00 in0.0 mm
04:19 AM 15.9°F-8.9°C 8.5°F-13.1°C 72% 8.0 mph W12.9 kmh W 9.0 mph14.5 kmh 30.42 in1030.1 mb 0.00 in0.0 mm 0.00 in0.0 mm 0.00 in0.0 mm
04:25 AM 15.9°F-8.9°C 8.5°F-13.1°C 72% Calm Calm 4.0 mph6.4 kmh 30.42 in1030.1 mb 0.00 in0.0 mm 0.00 in0.0 mm 0.00 in0.0 mm
04:30 AM 15.8°F-9.0°C 8.4°F-13.1°C 72% 2.0 mph W3.2 kmh W 4.0 mph6.4 kmh 30.42 in1030.1 mb 0.00 in0.0 mm 0.00 in0.0 mm 0.00 in0.0 mm
04:35 AM 15.7°F-9.1°C 8.3°F-13.2°C 72% 1.0 mph WNW1.6 kmh WNW 8.0 mph12.9 kmh 30.42 in1030.1 mb 0.00 in0.0 mm 0.00 in0.0 mm 0.00 in0.0 mm
04:40 AM 15.7°F-9.1°C 8.3°F-13.2°C 72% 3.0 mph NW4.8 kmh NW 6.0 mph9.7 kmh 30.42 in1030.1 mb 0.00 in0.0 mm 0.00 in0.0 mm 0.00 in0.0 mm
04:44 AM 15.6°F-9.1°C 8.2°F-13.2°C 72% 3.0 mph W4.8 kmh W 6.0 mph9.7 kmh 30.42 in1030.1 mb 0.00 in0.0 mm 0.00 in0.0 mm 0.00 in0.0 mm
04:50 AM 15.5°F-9.2°C 8.1°F-13.3°C 72% 3.0 mph W4.8 kmh W 4.0 mph6.4 kmh 30.42 in1030.1 mb 0.00 in0.0 mm 0.00 in0.0 mm 0.00 in0.0 mm
04:55 AM 15.4°F-9.2°C 8.0°F-13.3°C 72% 4.0 mph NW6.4 kmh NW 8.0 mph12.9 kmh 30.42 in1030.1 mb 0.00 in0.0 mm 0.00 in0.0 mm 0.00 in0.0 mm
05:00 AM 15.2°F-9.3°C 7.8°F-13.4°C 72% 1.0 mph WNW1.6 kmh WNW 4.0 mph6.4 kmh 30.42 in1030.1 mb 0.00 in0.0 mm 0.00 in0.0 mm 0.00 in0.0 mm
05:05 AM 15.1°F-9.4°C 7.7°F-13.5°C 72% 2.0 mph WNW3.2 kmh WNW 5.0 mph8.0 kmh 30.42 in1030.1 mb 0.00 in0.0 mm 0.00 in0.0 mm 0.00 in0.0 mm
05:10 AM 15.0°F-9.4°C 7.6°F-13.6°C 72% 1.0 mph NW1.6 kmh NW 4.0 mph6.4 kmh 30.42 in1030.1 mb 0.00 in0.0 mm 0.00 in0.0 mm 0.00 in0.0 mm
05:15 AM 14.9°F-9.5°C 7.5°F-13.6°C 72% 3.0 mph WSW4.8 kmh WSW 4.0 mph6.4 kmh 30.42 in1030.1 mb 0.00 in0.0 mm 0.00 in0.0 mm 0.00 in0.0 mm
05:20 AM 14.9°F-9.5°C 7.5°F-13.6°C 72% 2.0 mph W3.2 kmh W 3.0 mph4.8 kmh 30.42 in1030.1 mb 0.00 in0.0 mm 0.00 in0.0 mm 0.00 in0.0 mm
05:25 AM 14.7°F-9.6°C 7.6°F-13.6°C 73% 3.0 mph WNW4.8 kmh WNW 4.0 mph6.4 kmh 30.42 in1030.1 mb 0.00 in0.0 mm 0.00 in0.0 mm 0.00 in0.0 mm
05:30 AM 14.7°F-9.6°C 7.3°F-13.7°C 72% Calm Calm 4.0 mph6.4 kmh 30.42 in1030.1 mb 0.00 in0.0 mm 0.00 in0.0 mm 0.00 in0.0 mm
05:35 AM 14.6°F-9.7°C 7.5°F-13.6°C 73% 4.0 mph W6.4 kmh W 4.0 mph6.4 kmh 30.42 in1030.1 mb 0.00 in0.0 mm 0.00 in0.0 mm 0.00 in0.0 mm
05:40 AM 14.6°F-9.7°C 7.2°F-13.8°C 72% Calm Calm 5.0 mph8.0 kmh 30.41 in1029.8 mb 0.00 in0.0 mm 0.00 in0.0 mm 0.00 in0.0 mm
05:45 AM 14.6°F-9.7°C 7.5°F-13.6°C 73% 2.0 mph WNW3.2 kmh WNW 3.0 mph4.8 kmh 30.41 in1029.8 mb 0.00 in0.0 mm 0.00 in0.0 mm 0.00 in0.0 mm
05:50 AM 14.5°F-9.7°C 7.4°F-13.7°C 73% Calm Calm 2.0 mph3.2 kmh 30.42 in1030.1 mb 0.00 in0.0 mm 0.00 in0.0 mm 0.00 in0.0 mm
05:54 AM 14.5°F-9.7°C 7.4°F-13.7°C 73% 1.0 mph W1.6 kmh W 3.0 mph4.8 kmh 30.42 in1030.1 mb 0.00 in0.0 mm 0.00 in0.0 mm 0.00 in0.0 mm
06:00 AM 14.5°F-9.7°C 7.4°F-13.7°C 73% 2.0 mph WNW3.2 kmh WNW 4.0 mph6.4 kmh 30.42 in1030.1 mb 0.00 in0.0 mm 0.00 in0.0 mm 0.00 in0.0 mm
06:05 AM 14.5°F-9.7°C 7.4°F-13.7°C 73% Calm Calm 4.0 mph6.4 kmh 30.42 in1030.1 mb 0.00 in0.0 mm 0.00 in0.0 mm 0.00 in0.0 mm
06:10 AM 14.4°F-9.8°C 7.3°F-13.7°C 73% Calm Calm 2.0 mph3.2 kmh 30.42 in1030.1 mb 0.00 in0.0 mm 0.00 in0.0 mm 0.00 in0.0 mm
06:15 AM 14.3°F-9.8°C 7.6°F-13.6°C 74% 1.0 mph NW1.6 kmh NW 4.0 mph6.4 kmh 30.42 in1030.1 mb 0.00 in0.0 mm 0.00 in0.0 mm 0.00 in0.0 mm
06:19 AM 14.2°F-9.9°C 7.5°F-13.6°C 74% 1.0 mph NW1.6 kmh NW 2.0 mph3.2 kmh 30.42 in1030.1 mb 0.00 in0.0 mm 0.00 in0.0 mm 0.00 in0.0 mm
06:25 AM 14.1°F-9.9°C 7.4°F-13.7°C 74% 1.0 mph NW1.6 kmh NW 2.0 mph3.2 kmh 30.42 in1030.1 mb 0.00 in0.0 mm 0.00 in0.0 mm 0.00 in0.0 mm
06:30 AM 14.0°F-10.0°C 7.3°F-13.7°C 74% Calm Calm 1.0 mph1.6 kmh 30.42 in1030.1 mb 0.00 in0.0 mm 0.00 in0.0 mm 0.00 in0.0 mm
06:35 AM 13.9°F-10.1°C 7.2°F-13.8°C 74% 1.0 mph W1.6 kmh W 1.0 mph1.6 kmh 30.43 in1030.5 mb 0.00 in0.0 mm 0.00 in0.0 mm 0.00 in0.0 mm
06:40 AM 13.7°F-10.2°C 7.3°F-13.7°C 75% 1.0 mph W1.6 kmh W 2.0 mph3.2 kmh 30.43 in1030.5 mb 0.00 in0.0 mm 0.00 in0.0 mm 0.00 in0.0 mm
06:45 AM 13.7°F-10.2°C 7.3°F-13.7°C 75% 1.0 mph W1.6 kmh W 3.0 mph4.8 kmh 30.43 in1030.5 mb 0.00 in0.0 mm 0.00 in0.0 mm 0.00 in0.0 mm
06:49 AM 13.7°F-10.2°C 7.6°F-13.6°C 76% Calm Calm 2.0 mph3.2 kmh 30.43 in1030.5 mb 0.00 in0.0 mm 0.00 in0.0 mm 0.00 in0.0 mm
06:55 AM 13.5°F-10.3°C 7.4°F-13.7°C 76% 2.0 mph W3.2 kmh W 3.0 mph4.8 kmh 30.43 in1030.5 mb 0.00 in0.0 mm 0.00 in0.0 mm 0.00 in0.0 mm
06:59 AM 13.4°F-10.3°C 7.3°F-13.7°C 76% Calm Calm 4.0 mph6.4 kmh 30.43 in1030.5 mb 0.00 in0.0 mm 0.00 in0.0 mm 0.00 in0.0 mm
07:05 AM 13.2°F-10.4°C 7.1°F-13.8°C 76% 1.0 mph W1.6 kmh W 2.0 mph3.2 kmh 30.43 in1030.5 mb 0.00 in0.0 mm 0.00 in0.0 mm 0.00 in0.0 mm
07:10 AM 13.2°F-10.4°C 7.1°F-13.8°C 76% Calm Calm -- 30.44 in1030.8 mb 0.00 in0.0 mm 0.00 in0.0 mm 0.00 in0.0 mm
07:15 AM 13.1°F-10.5°C 7.3°F-13.7°C 77% 1.0 mph W1.6 kmh W 2.0 mph3.2 kmh 30.44 in1030.8 mb 0.00 in0.0 mm 0.00 in0.0 mm 0.00 in0.0 mm
07:20 AM 13.0°F-10.6°C 7.2°F-13.8°C 77% Calm Calm 2.0 mph3.2 kmh 30.44 in1030.8 mb 0.00 in0.0 mm 0.00 in0.0 mm 0.00 in0.0 mm
07:25 AM 12.9°F-10.6°C 7.1°F-13.8°C 77% Calm Calm 4.0 mph6.4 kmh 30.44 in1030.8 mb 0.00 in0.0 mm 0.00 in0.0 mm 0.00 in0.0 mm
07:30 AM 12.8°F-10.7°C 7.0°F-13.9°C 77% 1.0 mph W1.6 kmh W 2.0 mph3.2 kmh 30.44 in1030.8 mb 0.00 in0.0 mm 0.00 in0.0 mm 0.00 in0.0 mm
07:35 AM 12.7°F-10.7°C 6.9°F-13.9°C 77% 2.0 mph W3.2 kmh W 3.0 mph4.8 kmh 30.44 in1030.8 mb 0.00 in0.0 mm 0.00 in0.0 mm 0.00 in0.0 mm
07:40 AM 12.7°F-10.7°C 6.9°F-13.9°C 77% 3.0 mph W4.8 kmh W 3.0 mph4.8 kmh 30.44 in1030.8 mb 0.00 in0.0 mm 0.00 in0.0 mm 0.00 in0.0 mm
07:44 AM 12.6°F-10.8°C 6.8°F-14.0°C 77% 2.0 mph W3.2 kmh W 4.0 mph6.4 kmh 30.45 in1031.2 mb 0.00 in0.0 mm 0.00 in0.0 mm 0.00 in0.0 mm
07:50 AM 12.5°F-10.8°C 6.7°F-14.1°C 77% 1.0 mph W1.6 kmh W 6.0 mph9.7 kmh 30.45 in1031.2 mb 0.00 in0.0 mm 0.00 in0.0 mm 0.00 in0.0 mm
07:55 AM 12.5°F-10.8°C 6.7°F-14.1°C 77% 1.0 mph W1.6 kmh W 3.0 mph4.8 kmh 30.45 in1031.2 mb 0.00 in0.0 mm 0.00 in0.0 mm 0.00 in0.0 mm
08:00 AM 12.5°F-10.8°C 7.0°F-13.9°C 78% 2.0 mph W3.2 kmh W 3.0 mph4.8 kmh 30.45 in1031.2 mb 0.00 in0.0 mm 0.00 in0.0 mm 0.00 in0.0 mm
08:05 AM 12.4°F-10.9°C 6.6°F-14.1°C 77% 1.0 mph W1.6 kmh W 3.0 mph4.8 kmh 30.45 in1031.2 mb 0.00 in0.0 mm 0.00 in0.0 mm 0.00 in0.0 mm
08:09 AM 12.2°F-11.0°C 6.4°F-14.2°C 77% 1.0 mph SW1.6 kmh SW 3.0 mph4.8 kmh 30.45 in1031.2 mb 0.00 in0.0 mm 0.00 in0.0 mm 0.00 in0.0 mm
08:14 AM 12.1°F-11.1°C 6.3°F-14.3°C 77% 1.0 mph SW1.6 kmh SW 3.0 mph4.8 kmh 30.45 in1031.2 mb 0.00 in0.0 mm 0.00 in0.0 mm 0.00 in0.0 mm
08:20 AM 12.0°F-11.1°C 6.2°F-14.3°C 77% 1.0 mph SW1.6 kmh SW 3.0 mph4.8 kmh 30.45 in1031.2 mb 0.00 in0.0 mm 0.00 in0.0 mm 0.00 in0.0 mm
08:25 AM 11.9°F-11.2°C 6.1°F-14.4°C 77% Calm Calm 2.0 mph3.2 kmh 30.45 in1031.2 mb 0.00 in0.0 mm 0.00 in0.0 mm 0.00 in0.0 mm
08:30 AM 11.9°F-11.2°C 6.4°F-14.2°C 78% 1.0 mph SW1.6 kmh SW 4.0 mph6.4 kmh 30.45 in1031.2 mb 0.00 in0.0 mm 0.00 in0.0 mm 0.00 in0.0 mm
08:34 AM 11.8°F-11.2°C 6.3°F-14.3°C 78% 3.0 mph SW4.8 kmh SW 3.0 mph4.8 kmh 30.45 in1031.2 mb 0.00 in0.0 mm 0.00 in0.0 mm 0.00 in0.0 mm
08:40 AM 11.8°F-11.2°C 6.3°F-14.3°C 78% 1.0 mph W1.6 kmh W 3.0 mph4.8 kmh 30.45 in1031.2 mb 0.00 in0.0 mm 0.00 in0.0 mm 0.00 in0.0 mm
08:45 AM 11.8°F-11.2°C 6.3°F-14.3°C 78% 3.0 mph SW4.8 kmh SW 6.0 mph9.7 kmh 30.46 in1031.5 mb 0.00 in0.0 mm 0.00 in0.0 mm 0.00 in0.0 mm
08:50 AM 11.9°F-11.2°C 6.4°F-14.2°C 78% 3.0 mph SW4.8 kmh SW 8.0 mph12.9 kmh 30.46 in1031.5 mb 0.00 in0.0 mm 0.00 in0.0 mm 0.00 in0.0 mm
08:55 AM 12.1°F-11.1°C 6.6°F-14.1°C 78% 3.0 mph W4.8 kmh W 4.0 mph6.4 kmh 30.47 in1031.8 mb 0.00 in0.0 mm 0.00 in0.0 mm 0.00 in0.0 mm
08:59 AM 12.3°F-10.9°C 6.8°F-14.0°C 78% 5.0 mph WSW8.0 kmh WSW 7.0 mph11.3 kmh 30.47 in1031.8 mb 0.00 in0.0 mm 0.00 in0.0 mm 0.00 in0.0 mm
09:05 AM 12.4°F-10.9°C 6.9°F-13.9°C 78% Calm Calm 5.0 mph8.0 kmh 30.47 in1031.8 mb 0.00 in0.0 mm 0.00 in0.0 mm 0.00 in0.0 mm
09:10 AM 12.5°F-10.8°C 7.0°F-13.9°C 78% 2.0 mph SW3.2 kmh SW 5.0 mph8.0 kmh 30.47 in1031.8 mb 0.00 in0.0 mm 0.00 in0.0 mm 0.00 in0.0 mm
09:15 AM 12.6°F-10.8°C 7.1°F-13.8°C 78% Calm Calm 2.0 mph3.2 kmh 30.47 in1031.8 mb 0.00 in0.0 mm 0.00 in0.0 mm 0.00 in0.0 mm
09:20 AM 12.7°F-10.7°C 7.2°F-13.8°C 78% 1.0 mph SW1.6 kmh SW 6.0 mph9.7 kmh 30.47 in1031.8 mb 0.00 in0.0 mm 0.00 in0.0 mm 0.00 in0.0 mm
09:25 AM 12.8°F-10.7°C 7.3°F-13.7°C 78% 6.0 mph W9.7 kmh W 6.0 mph9.7 kmh 30.48 in1032.2 mb 0.00 in0.0 mm 0.00 in0.0 mm 0.00 in0.0 mm
09:30 AM 12.8°F-10.7°C 7.0°F-13.9°C 77% 4.0 mph NW6.4 kmh NW 6.0 mph9.7 kmh 30.48 in1032.2 mb 0.00 in0.0 mm 0.00 in0.0 mm 0.00 in0.0 mm
09:35 AM 13.0°F-10.6°C 7.2°F-13.8°C 77% 2.0 mph NW3.2 kmh NW 4.0 mph6.4 kmh 30.48 in1032.2 mb 0.00 in0.0 mm 0.00 in0.0 mm 0.00 in0.0 mm
09:40 AM 13.3°F-10.4°C 7.5°F-13.6°C 77% 1.0 mph NW1.6 kmh NW 7.0 mph11.3 kmh 30.48 in1032.2 mb 0.00 in0.0 mm 0.00 in0.0 mm 0.00 in0.0 mm
09:45 AM 13.5°F-10.3°C 7.4°F-13.7°C 76% 4.0 mph W6.4 kmh W 6.0 mph9.7 kmh 30.48 in1032.2 mb 0.00 in0.0 mm 0.00 in0.0 mm 0.00 in0.0 mm
09:50 AM 13.9°F-10.1°C 7.8°F-13.4°C 76% 3.0 mph NW4.8 kmh NW 7.0 mph11.3 kmh 30.48 in1032.2 mb 0.00 in0.0 mm 0.00 in0.0 mm 0.00 in0.0 mm
09:55 AM 14.3°F-9.8°C 7.8°F-13.4°C 75% 2.0 mph NW3.2 kmh NW 7.0 mph11.3 kmh 30.49 in1032.5 mb 0.00 in0.0 mm 0.00 in0.0 mm 0.00 in0.0 mm
10:00 AM 14.6°F-9.7°C 8.1°F-13.3°C 75% 2.0 mph WNW3.2 kmh WNW 6.0 mph9.7 kmh 30.49 in1032.5 mb 0.00 in0.0 mm 0.00 in0.0 mm 0.00 in0.0 mm
10:05 AM 15.0°F-9.4°C 8.5°F-13.1°C 75% 5.0 mph NW8.0 kmh NW 6.0 mph9.7 kmh 30.49 in1032.5 mb 0.00 in0.0 mm 0.00 in0.0 mm 0.00 in0.0 mm
10:10 AM 15.3°F-9.3°C 8.5°F-13.1°C 74% 3.0 mph NW4.8 kmh NW 5.0 mph8.0 kmh 30.49 in1032.5 mb 0.00 in0.0 mm 0.00 in0.0 mm 0.00 in0.0 mm
10:15 AM 15.5°F-9.2°C 8.4°F-13.1°C 73% 3.0 mph WNW4.8 kmh WNW 8.0 mph12.9 kmh 30.50 in1032.8 mb 0.00 in0.0 mm 0.00 in0.0 mm 0.00 in0.0 mm
10:20 AM 15.7°F-9.1°C 8.3°F-13.2°C 72% 2.0 mph NW3.2 kmh NW 7.0 mph11.3 kmh 30.50 in1032.8 mb 0.00 in0.0 mm 0.00 in0.0 mm 0.00 in0.0 mm
10:25 AM 16.2°F-8.8°C 8.8°F-12.9°C 72% 1.0 mph W1.6 kmh W 7.0 mph11.3 kmh 30.50 in1032.8 mb 0.00 in0.0 mm 0.00 in0.0 mm 0.00 in0.0 mm
10:30 AM 16.5°F-8.6°C 8.8°F-12.9°C 71% 5.0 mph NW8.0 kmh NW 5.0 mph8.0 kmh 30.50 in1032.8 mb 0.00 in0.0 mm 0.00 in0.0 mm 0.00 in0.0 mm
10:35 AM 16.5°F-8.6°C 8.4°F-13.1°C 70% 2.0 mph NW3.2 kmh NW 5.0 mph8.0 kmh 30.50 in1032.8 mb 0.00 in0.0 mm 0.00 in0.0 mm 0.00 in0.0 mm
10:40 AM 16.8°F-8.4°C 8.7°F-12.9°C 70% 3.0 mph W4.8 kmh W 4.0 mph6.4 kmh 30.50 in1032.8 mb 0.00 in0.0 mm 0.00 in0.0 mm 0.00 in0.0 mm
10:45 AM 17.2°F-8.2°C 9.1°F-12.7°C 70% 3.0 mph WSW4.8 kmh WSW 9.0 mph14.5 kmh 30.51 in1033.2 mb 0.00 in0.0 mm 0.00 in0.0 mm 0.00 in0.0 mm
10:49 AM 17.2°F-8.2°C 8.5°F-13.1°C 68% 4.0 mph NW6.4 kmh NW 9.0 mph14.5 kmh 30.51 in1033.2 mb 0.00 in0.0 mm 0.00 in0.0 mm 0.00 in0.0 mm
10:54 AM 17.4°F-8.1°C 9.0°F-12.8°C 69% 1.0 mph WSW1.6 kmh WSW 5.0 mph8.0 kmh 30.51 in1033.2 mb 0.00 in0.0 mm 0.00 in0.0 mm 0.00 in0.0 mm
11:00 AM 17.6°F-8.0°C 8.5°F-13.1°C 67% 6.0 mph W9.7 kmh W 8.0 mph12.9 kmh 30.51 in1033.2 mb 0.00 in0.0 mm 0.00 in0.0 mm 0.00 in0.0 mm
11:04 AM 17.8°F-7.9°C 8.7°F-12.9°C 67% 5.0 mph WSW8.0 kmh WSW 11.0 mph17.7 kmh 30.51 in1033.2 mb 0.00 in0.0 mm 0.00 in0.0 mm 0.00 in0.0 mm
11:09 AM 18.0°F-7.8°C 8.9°F-12.8°C 67% Calm Calm 11.0 mph17.7 kmh 30.51 in1033.2 mb 0.00 in0.0 mm 0.00 in0.0 mm 0.00 in0.0 mm
11:15 AM 18.1°F-7.7°C 9.0°F-12.8°C 67% 3.0 mph NW4.8 kmh NW 6.0 mph9.7 kmh 30.51 in1033.2 mb 0.00 in0.0 mm 0.00 in0.0 mm 0.00 in0.0 mm
11:20 AM 18.3°F-7.6°C 9.2°F-12.7°C 67% 3.0 mph SW4.8 kmh SW 9.0 mph14.5 kmh 30.51 in1033.2 mb 0.00 in0.0 mm 0.00 in0.0 mm 0.00 in0.0 mm
11:24 AM 18.6°F-7.4°C 9.2°F-12.7°C 66% 4.0 mph NW6.4 kmh NW 9.0 mph14.5 kmh 30.50 in1032.8 mb 0.00 in0.0 mm 0.00 in0.0 mm 0.00 in0.0 mm
11:30 AM 18.6°F-7.4°C 8.8°F-12.9°C 65% 6.0 mph NW9.7 kmh NW 9.0 mph14.5 kmh 30.50 in1032.8 mb 0.00 in0.0 mm 0.00 in0.0 mm 0.00 in0.0 mm
11:35 AM 18.7°F-7.4°C 8.6°F-13.0°C 64% 3.0 mph WNW4.8 kmh WNW 8.0 mph12.9 kmh 30.50 in1032.8 mb 0.00 in0.0 mm 0.00 in0.0 mm 0.00 in0.0 mm
11:40 AM 19.0°F-7.2°C 9.2°F-12.7°C 65% 5.0 mph NW8.0 kmh NW 10.0 mph16.1 kmh 30.51 in1033.2 mb 0.00 in0.0 mm 0.00 in0.0 mm 0.00 in0.0 mm
11:44 AM 19.1°F-7.2°C 8.9°F-12.8°C 64% 4.0 mph WNW6.4 kmh WNW 9.0 mph14.5 kmh 30.50 in1032.8 mb 0.00 in0.0 mm 0.00 in0.0 mm 0.00 in0.0 mm
11:49 AM 19.6°F-6.9°C 9.8°F-12.3°C 65% 4.0 mph W6.4 kmh W 7.0 mph11.3 kmh 30.50 in1032.8 mb 0.00 in0.0 mm 0.00 in0.0 mm 0.00 in0.0 mm
11:55 AM 20.0°F-6.7°C 9.8°F-12.3°C 64% 6.0 mph SW9.7 kmh SW 12.0 mph19.3 kmh 30.50 in1032.8 mb 0.00 in0.0 mm 0.00 in0.0 mm 0.00 in0.0 mm
11:59 AM 20.4°F-6.4°C 10.5°F-11.9°C 65% 8.0 mph NW12.9 kmh NW 8.0 mph12.9 kmh 30.50 in1032.8 mb 0.00 in0.0 mm 0.00 in0.0 mm 0.00 in0.0 mm
12:05 PM 20.3°F-6.5°C 9.4°F-12.6°C 62% 3.0 mph NW4.8 kmh NW 7.0 mph11.3 kmh 30.50 in1032.8 mb 0.00 in0.0 mm 0.00 in0.0 mm 0.00 in0.0 mm
12:09 PM 20.7°F-6.3°C 10.5°F-11.9°C 64% 3.0 mph WNW4.8 kmh WNW 10.0 mph16.1 kmh 30.49 in1032.5 mb 0.00 in0.0 mm 0.00 in0.0 mm 0.00 in0.0 mm
12:15 PM 21.1°F-6.1°C 10.5°F-11.9°C 63% 3.0 mph NW4.8 kmh NW 8.0 mph12.9 kmh 30.49 in1032.5 mb 0.00 in0.0 mm 0.00 in0.0 mm 0.00 in0.0 mm
12:19 PM 21.0°F-6.1°C 10.0°F-12.2°C 62% 4.0 mph NW6.4 kmh NW 8.0 mph12.9 kmh 30.49 in1032.5 mb 0.00 in0.0 mm 0.00 in0.0 mm 0.00 in0.0 mm
12:25 PM 20.8°F-6.2°C 9.9°F-12.3°C 62% 4.0 mph WSW6.4 kmh WSW 7.0 mph11.3 kmh 30.49 in1032.5 mb 0.00 in0.0 mm 0.00 in0.0 mm 0.00 in0.0 mm
12:30 PM 21.4°F-5.9°C 10.4°F-12.0°C 62% 7.0 mph SW11.3 kmh SW 10.0 mph16.1 kmh 30.49 in1032.5 mb 0.00 in0.0 mm 0.00 in0.0 mm 0.00 in0.0 mm
12:35 PM 21.3°F-5.9°C 10.7°F-11.8°C 63% 5.0 mph NW8.0 kmh NW 6.0 mph9.7 kmh 30.49 in1032.5 mb 0.00 in0.0 mm 0.00 in0.0 mm 0.00 in0.0 mm
12:40 PM 21.5°F-5.8°C 10.5°F-11.9°C 62% 3.0 mph WSW4.8 kmh WSW 7.0 mph11.3 kmh 30.49 in1032.5 mb 0.00 in0.0 mm 0.00 in0.0 mm 0.00 in0.0 mm
12:44 PM 21.7°F-5.7°C 11.1°F-11.6°C 63% 2.0 mph W3.2 kmh W 15.0 mph24.1 kmh 30.49 in1032.5 mb 0.00 in0.0 mm 0.00 in0.0 mm 0.00 in0.0 mm
12:50 PM 21.7°F-5.7°C 10.7°F-11.8°C 62% 4.0 mph SW6.4 kmh SW 8.0 mph12.9 kmh 30.49 in1032.5 mb 0.00 in0.0 mm 0.00 in0.0 mm 0.00 in0.0 mm
12:55 PM 22.3°F-5.4°C 11.6°F-11.3°C 63% 5.0 mph SW8.0 kmh SW 7.0 mph11.3 kmh 30.49 in1032.5 mb 0.00 in0.0 mm 0.00 in0.0 mm 0.00 in0.0 mm
01:00 PM 21.9°F-5.6°C 10.9°F-11.7°C 62% 8.0 mph WNW12.9 kmh WNW 10.0 mph16.1 kmh 30.49 in1032.5 mb 0.00 in0.0 mm 0.00 in0.0 mm 0.00 in0.0 mm
01:05 PM 22.1°F-5.5°C 10.7°F-11.8°C 61% 3.0 mph WSW4.8 kmh WSW 8.0 mph12.9 kmh 30.49 in1032.5 mb 0.00 in0.0 mm 0.00 in0.0 mm 0.00 in0.0 mm
01:10 PM 22.1°F-5.5°C 10.4°F-12.0°C 60% 3.0 mph SW4.8 kmh SW 11.0 mph17.7 kmh 30.49 in1032.5 mb 0.00 in0.0 mm 0.00 in0.0 mm 0.00 in0.0 mm
01:15 PM 22.5°F-5.3°C 11.1°F-11.6°C 61% 5.0 mph NW8.0 kmh NW 8.0 mph12.9 kmh 30.48 in1032.2 mb 0.00 in0.0 mm 0.00 in0.0 mm 0.00 in0.0 mm
01:20 PM 22.3°F-5.4°C 10.9°F-11.7°C 61% Calm Calm 15.0 mph24.1 kmh 30.48 in1032.2 mb 0.00 in0.0 mm 0.00 in0.0 mm 0.00 in0.0 mm
01:24 PM 23.1°F-4.9°C 11.3°F-11.5°C 60% 4.0 mph WSW6.4 kmh WSW 7.0 mph11.3 kmh 30.48 in1032.2 mb 0.00 in0.0 mm 0.00 in0.0 mm 0.00 in0.0 mm
01:30 PM 23.1°F-4.9°C 10.9°F-11.7°C 59% 4.0 mph WSW6.4 kmh WSW 6.0 mph9.7 kmh 30.48 in1032.2 mb 0.00 in0.0 mm 0.00 in0.0 mm 0.00 in0.0 mm
01:34 PM 23.3°F-4.8°C 11.9°F-11.2°C 61% 9.0 mph SW14.5 kmh SW 10.0 mph16.1 kmh 30.48 in1032.2 mb 0.00 in0.0 mm 0.00 in0.0 mm 0.00 in0.0 mm
01:39 PM 23.9°F-4.5°C 11.7°F-11.3°C 59% 4.0 mph W6.4 kmh W 8.0 mph12.9 kmh 30.48 in1032.2 mb 0.00 in0.0 mm 0.00 in0.0 mm 0.00 in0.0 mm
01:45 PM 23.9°F-4.5°C 10.9°F-11.7°C 57% 5.0 mph NW8.0 kmh NW 7.0 mph11.3 kmh 30.47 in1031.8 mb 0.00 in0.0 mm 0.00 in0.0 mm 0.00 in0.0 mm
01:50 PM 24.0°F-4.4°C 11.4°F-11.4°C 58% 9.0 mph W14.5 kmh W 9.0 mph14.5 kmh 30.47 in1031.8 mb 0.00 in0.0 mm 0.00 in0.0 mm 0.00 in0.0 mm
01:55 PM 24.2°F-4.3°C 11.2°F-11.6°C 57% 2.0 mph WNW3.2 kmh WNW 13.0 mph20.9 kmh 30.48 in1032.2 mb 0.00 in0.0 mm 0.00 in0.0 mm 0.00 in0.0 mm
02:00 PM 23.9°F-4.5°C 10.9°F-11.7°C 57% 3.0 mph W4.8 kmh W 11.0 mph17.7 kmh 30.47 in1031.8 mb 0.00 in0.0 mm 0.00 in0.0 mm 0.00 in0.0 mm
02:05 PM 24.4°F-4.2°C 11.8°F-11.2°C 58% 8.0 mph SW12.9 kmh SW 9.0 mph14.5 kmh 30.47 in1031.8 mb 0.00 in0.0 mm 0.00 in0.0 mm 0.00 in0.0 mm
02:10 PM 24.7°F-4.1°C 11.7°F-11.3°C 57% 2.0 mph NW3.2 kmh NW 8.0 mph12.9 kmh 30.47 in1031.8 mb 0.00 in0.0 mm 0.00 in0.0 mm 0.00 in0.0 mm
02:15 PM 24.8°F-4.0°C 11.7°F-11.3°C 57% 6.0 mph W9.7 kmh W 9.0 mph14.5 kmh 30.47 in1031.8 mb 0.00 in0.0 mm 0.00 in0.0 mm 0.00 in0.0 mm
02:20 PM 25.1°F-3.8°C 12.4°F-10.9°C 58% 8.0 mph WSW12.9 kmh WSW 13.0 mph20.9 kmh 30.47 in1031.8 mb 0.00 in0.0 mm 0.00 in0.0 mm 0.00 in0.0 mm
02:25 PM 25.0°F-3.9°C 11.9°F-11.2°C 57% 3.0 mph W4.8 kmh W 7.0 mph11.3 kmh 30.46 in1031.5 mb 0.00 in0.0 mm 0.00 in0.0 mm 0.00 in0.0 mm
02:29 PM 25.5°F-3.6°C 12.4°F-10.9°C 57% 10.0 mph SW16.1 kmh SW 13.0 mph20.9 kmh 30.46 in1031.5 mb 0.00 in0.0 mm 0.00 in0.0 mm 0.00 in0.0 mm
02:35 PM 25.1°F-3.8°C 12.4°F-10.9°C 58% 9.0 mph WNW14.5 kmh WNW 13.0 mph20.9 kmh 30.46 in1031.5 mb 0.00 in0.0 mm 0.00 in0.0 mm 0.00 in0.0 mm
02:40 PM 25.1°F-3.8°C 11.6°F-11.3°C 56% 5.0 mph WSW8.0 kmh WSW 15.0 mph24.1 kmh 30.46 in1031.5 mb 0.00 in0.0 mm 0.00 in0.0 mm 0.00 in0.0 mm
04:20 PM 28.9°F-1.7°C 13.9°F-10.1°C 53% 9.0 mph SW14.5 kmh SW 10.0 mph16.1 kmh 30.41 in1029.8 mb 0.00 in0.0 mm 0.00 in0.0 mm 0.00 in0.0 mm
04:25 PM 29.2°F-1.6°C 13.3°F-10.4°C 51% 9.0 mph NW14.5 kmh NW 9.0 mph14.5 kmh 30.41 in1029.8 mb 0.00 in0.0 mm 0.00 in0.0 mm 0.00 in0.0 mm
04:30 PM 29.2°F-1.6°C 14.2°F-9.9°C 53% 5.0 mph SW8.0 kmh SW 10.0 mph16.1 kmh 30.40 in1029.5 mb 0.00 in0.0 mm 0.00 in0.0 mm 0.00 in0.0 mm
04:34 PM 29.4°F-1.4°C 14.8°F-9.6°C 54% 7.0 mph WSW11.3 kmh WSW 7.0 mph11.3 kmh 30.40 in1029.5 mb 0.00 in0.0 mm 0.00 in0.0 mm 0.00 in0.0 mm
04:40 PM 29.6°F-1.3°C 15.0°F-9.4°C 54% 4.0 mph SW6.4 kmh SW 11.0 mph17.7 kmh 30.40 in1029.5 mb 0.00 in0.0 mm 0.00 in0.0 mm 0.00 in0.0 mm
04:45 PM 29.4°F-1.4°C 14.8°F-9.6°C 54% 7.0 mph SW11.3 kmh SW 13.0 mph20.9 kmh 30.40 in1029.5 mb 0.00 in0.0 mm 0.00 in0.0 mm 0.00 in0.0 mm
04:50 PM 29.1°F-1.6°C 14.5°F-9.7°C 54% 5.0 mph WSW8.0 kmh WSW 10.0 mph16.1 kmh 30.40 in1029.5 mb 0.00 in0.0 mm 0.00 in0.0 mm 0.00 in0.0 mm
04:55 PM 29.5°F-1.4°C 14.5°F-9.7°C 53% 7.0 mph WSW11.3 kmh WSW 9.0 mph14.5 kmh 30.40 in1029.5 mb 0.00 in0.0 mm 0.00 in0.0 mm 0.00 in0.0 mm
05:00 PM 30.0°F-1.1°C 15.4°F-9.2°C 54% 3.0 mph WSW4.8 kmh WSW 9.0 mph14.5 kmh 30.40 in1029.5 mb 0.00 in0.0 mm 0.00 in0.0 mm 0.00 in0.0 mm
05:05 PM 30.0°F-1.1°C 14.5°F-9.7°C 52% 4.0 mph SW6.4 kmh SW 12.0 mph19.3 kmh 30.40 in1029.5 mb 0.00 in0.0 mm 0.00 in0.0 mm 0.00 in0.0 mm
05:10 PM 29.5°F-1.4°C 14.1°F-9.9°C 52% 5.0 mph SW8.0 kmh SW 15.0 mph24.1 kmh 30.40 in1029.5 mb 0.00 in0.0 mm 0.00 in0.0 mm 0.00 in0.0 mm
05:15 PM 29.8°F-1.2°C 14.8°F-9.6°C 53% 11.0 mph SW17.7 kmh SW 11.0 mph17.7 kmh 30.39 in1029.1 mb 0.00 in0.0 mm 0.00 in0.0 mm 0.00 in0.0 mm
05:20 PM 30.0°F-1.1°C 14.1°F-9.9°C 51% 4.0 mph NW6.4 kmh NW 13.0 mph20.9 kmh 30.39 in1029.1 mb 0.00 in0.0 mm 0.00 in0.0 mm 0.00 in0.0 mm
05:25 PM 30.3°F-0.9°C 14.4°F-9.8°C 51% 2.0 mph W3.2 kmh W 9.0 mph14.5 kmh 30.40 in1029.5 mb 0.00 in0.0 mm 0.00 in0.0 mm 0.00 in0.0 mm
05:30 PM 30.1°F-1.1°C 14.2°F-9.9°C 51% 5.0 mph SW8.0 kmh SW 14.0 mph22.5 kmh 30.39 in1029.1 mb 0.00 in0.0 mm 0.00 in0.0 mm 0.00 in0.0 mm
05:34 PM 30.4°F-0.9°C 14.9°F-9.5°C 52% 6.0 mph W9.7 kmh W 14.0 mph22.5 kmh 30.39 in1029.1 mb 0.00 in0.0 mm 0.00 in0.0 mm 0.00 in0.0 mm
05:40 PM 30.5°F-0.8°C 15.0°F-9.4°C 52% 8.0 mph WSW12.9 kmh WSW 11.0 mph17.7 kmh 30.39 in1029.1 mb 0.00 in0.0 mm 0.00 in0.0 mm 0.00 in0.0 mm
05:45 PM 30.3°F-0.9°C 15.2°F-9.3°C 53% 10.0 mph SW16.1 kmh SW 10.0 mph16.1 kmh 30.38 in1028.8 mb 0.00 in0.0 mm 0.00 in0.0 mm 0.00 in0.0 mm
05:50 PM 30.2°F-1.0°C 13.8°F-10.1°C 50% 8.0 mph W12.9 kmh W 11.0 mph17.7 kmh 30.39 in1029.1 mb 0.00 in0.0 mm 0.00 in0.0 mm 0.00 in0.0 mm
05:55 PM 30.2°F-1.0°C 13.8°F-10.1°C 50% 1.0 mph WNW1.6 kmh WNW 8.0 mph12.9 kmh 30.38 in1028.8 mb 0.00 in0.0 mm 0.00 in0.0 mm 0.00 in0.0 mm
06:00 PM 30.7°F-0.7°C 15.6°F-9.1°C 53% 2.0 mph SW3.2 kmh SW 7.0 mph11.3 kmh 30.38 in1028.8 mb 0.00 in0.0 mm 0.00 in0.0 mm 0.00 in0.0 mm
06:05 PM 30.1°F-1.1°C 14.2°F-9.9°C 51% 6.0 mph S9.7 kmh S 6.0 mph9.7 kmh 30.38 in1028.8 mb 0.00 in0.0 mm 0.00 in0.0 mm 0.00 in0.0 mm
06:09 PM 30.1°F-1.1°C 15.1°F-9.4°C 53% Calm Calm 9.0 mph14.5 kmh 30.38 in1028.8 mb 0.00 in0.0 mm 0.00 in0.0 mm 0.00 in0.0 mm
06:15 PM 30.5°F-0.8°C 14.1°F-9.9°C 50% 3.0 mph W4.8 kmh W 7.0 mph11.3 kmh 30.39 in1029.1 mb 0.00 in0.0 mm 0.00 in0.0 mm 0.00 in0.0 mm
06:19 PM 30.3°F-0.9°C 15.2°F-9.3°C 53% 3.0 mph W4.8 kmh W 7.0 mph11.3 kmh 30.38 in1028.8 mb 0.00 in0.0 mm 0.00 in0.0 mm 0.00 in0.0 mm
06:25 PM 30.2°F-1.0°C 14.7°F-9.6°C 52% 4.0 mph WSW6.4 kmh WSW 6.0 mph9.7 kmh 30.38 in1028.8 mb 0.00 in0.0 mm 0.00 in0.0 mm 0.00 in0.0 mm
06:30 PM 29.9°F-1.2°C 14.4°F-9.8°C 52% 4.0 mph SW6.4 kmh SW 11.0 mph17.7 kmh 30.38 in1028.8 mb 0.00 in0.0 mm 0.00 in0.0 mm 0.00 in0.0 mm
06:35 PM 29.6°F-1.3°C 14.2°F-9.9°C 52% 8.0 mph WSW12.9 kmh WSW 8.0 mph12.9 kmh 30.38 in1028.8 mb 0.00 in0.0 mm 0.00 in0.0 mm 0.00 in0.0 mm
06:40 PM 29.4°F-1.4°C 14.0°F-10.0°C 52% 5.0 mph SW8.0 kmh SW 14.0 mph22.5 kmh 30.38 in1028.8 mb 0.00 in0.0 mm 0.00 in0.0 mm 0.00 in0.0 mm
06:45 PM 29.3°F-1.5°C 14.3°F-9.8°C 53% 3.0 mph WSW4.8 kmh WSW 7.0 mph11.3 kmh 30.38 in1028.8 mb 0.00 in0.0 mm 0.00 in0.0 mm 0.00 in0.0 mm
06:50 PM 29.4°F-1.4°C 14.8°F-9.6°C 54% 4.0 mph WSW6.4 kmh WSW 6.0 mph9.7 kmh 30.38 in1028.8 mb 0.00 in0.0 mm 0.00 in0.0 mm 0.00 in0.0 mm
06:55 PM 29.3°F-1.5°C 14.7°F-9.6°C 54% 4.0 mph W6.4 kmh W 12.0 mph19.3 kmh 30.38 in1028.8 mb 0.00 in0.0 mm 0.00 in0.0 mm 0.00 in0.0 mm
07:00 PM 29.3°F-1.5°C 14.7°F-9.6°C 54% 7.0 mph SW11.3 kmh SW 7.0 mph11.3 kmh 30.37 in1028.4 mb 0.00 in0.0 mm 0.00 in0.0 mm 0.00 in0.0 mm
07:04 PM 29.2°F-1.6°C 13.8°F-10.1°C 52% 2.0 mph SW3.2 kmh SW 11.0 mph17.7 kmh 30.38 in1028.8 mb 0.00 in0.0 mm 0.00 in0.0 mm 0.00 in0.0 mm
07:10 PM 29.0°F-1.7°C 13.6°F-10.2°C 52% 4.0 mph NW6.4 kmh NW 14.0 mph22.5 kmh 30.38 in1028.8 mb 0.00 in0.0 mm 0.00 in0.0 mm 0.00 in0.0 mm
07:15 PM 28.9°F-1.7°C 13.9°F-10.1°C 53% 3.0 mph WSW4.8 kmh WSW 6.0 mph9.7 kmh 30.38 in1028.8 mb 0.00 in0.0 mm 0.00 in0.0 mm 0.00 in0.0 mm
07:20 PM 28.8°F-1.8°C 13.8°F-10.1°C 53% 5.0 mph SW8.0 kmh SW 10.0 mph16.1 kmh 30.37 in1028.4 mb 0.00 in0.0 mm 0.00 in0.0 mm 0.00 in0.0 mm
07:25 PM 28.7°F-1.8°C 13.8°F-10.1°C 53% 7.0 mph SW11.3 kmh SW 9.0 mph14.5 kmh 30.37 in1028.4 mb 0.00 in0.0 mm 0.00 in0.0 mm 0.00 in0.0 mm
07:30 PM 28.8°F-1.8°C 14.7°F-9.6°C 55% 5.0 mph SW8.0 kmh SW 11.0 mph17.7 kmh 30.37 in1028.4 mb 0.00 in0.0 mm 0.00 in0.0 mm 0.00 in0.0 mm
07:34 PM 28.6°F-1.9°C 13.7°F-10.2°C 53% 9.0 mph SW14.5 kmh SW 13.0 mph20.9 kmh 30.37 in1028.4 mb 0.00 in0.0 mm 0.00 in0.0 mm 0.00 in0.0 mm
07:40 PM 28.5°F-1.9°C 14.0°F-10.0°C 54% 8.0 mph SW12.9 kmh SW 13.0 mph20.9 kmh 30.37 in1028.4 mb 0.00 in0.0 mm 0.00 in0.0 mm 0.00 in0.0 mm
07:45 PM 28.4°F-2.0°C 13.9°F-10.1°C 54% 9.0 mph WSW14.5 kmh WSW 9.0 mph14.5 kmh 30.37 in1028.4 mb 0.00 in0.0 mm 0.00 in0.0 mm 0.00 in0.0 mm
07:49 PM 28.4°F-2.0°C 13.9°F-10.1°C 54% 7.0 mph SW11.3 kmh SW 7.0 mph11.3 kmh 30.37 in1028.4 mb 0.00 in0.0 mm 0.00 in0.0 mm 0.00 in0.0 mm
07:54 PM 28.3°F-2.1°C 14.2°F-9.9°C 55% 1.0 mph WSW1.6 kmh WSW 7.0 mph11.3 kmh 30.36 in1028.1 mb 0.00 in0.0 mm 0.00 in0.0 mm 0.00 in0.0 mm
08:00 PM 28.4°F-2.0°C 15.5°F-9.2°C 58% 7.0 mph WSW11.3 kmh WSW 7.0 mph11.3 kmh 30.37 in1028.4 mb 0.00 in0.0 mm 0.00 in0.0 mm 0.00 in0.0 mm
08:05 PM 28.3°F-2.1°C 15.0°F-9.4°C 57% 1.0 mph SW1.6 kmh SW 10.0 mph16.1 kmh 30.36 in1028.1 mb 0.00 in0.0 mm 0.00 in0.0 mm 0.00 in0.0 mm
08:10 PM 28.0°F-2.2°C 15.2°F-9.3°C 58% 4.0 mph SW6.4 kmh SW 7.0 mph11.3 kmh 30.36 in1028.1 mb 0.00 in0.0 mm 0.00 in0.0 mm 0.00 in0.0 mm
08:15 PM 27.9°F-2.3°C 15.4°F-9.2°C 59% 5.0 mph SW8.0 kmh SW 5.0 mph8.0 kmh 30.37 in1028.4 mb 0.00 in0.0 mm 0.00 in0.0 mm 0.00 in0.0 mm
08:20 PM 27.7°F-2.4°C 15.3°F-9.3°C 59% 5.0 mph SW8.0 kmh SW 10.0 mph16.1 kmh 30.36 in1028.1 mb 0.00 in0.0 mm 0.00 in0.0 mm 0.00 in0.0 mm
08:25 PM 27.6°F-2.4°C 15.2°F-9.3°C 59% 11.0 mph WSW17.7 kmh WSW 11.0 mph17.7 kmh 30.36 in1028.1 mb 0.00 in0.0 mm 0.00 in0.0 mm 0.00 in0.0 mm
08:29 PM 27.5°F-2.5°C 15.5°F-9.2°C 60% 2.0 mph SW3.2 kmh SW 10.0 mph16.1 kmh 30.36 in1028.1 mb 0.00 in0.0 mm 0.00 in0.0 mm 0.00 in0.0 mm
08:35 PM 27.5°F-2.5°C 15.5°F-9.2°C 60% 5.0 mph SW8.0 kmh SW 10.0 mph16.1 kmh 30.36 in1028.1 mb 0.00 in0.0 mm 0.00 in0.0 mm 0.00 in0.0 mm
08:39 PM 27.4°F-2.6°C 15.4°F-9.2°C 60% 7.0 mph SW11.3 kmh SW 7.0 mph11.3 kmh 30.36 in1028.1 mb 0.00 in0.0 mm 0.00 in0.0 mm 0.00 in0.0 mm
08:45 PM 27.2°F-2.7°C 15.6°F-9.1°C 61% 4.0 mph WSW6.4 kmh WSW 4.0 mph6.4 kmh 30.37 in1028.4 mb 0.00 in0.0 mm 0.00 in0.0 mm 0.00 in0.0 mm
08:50 PM 27.1°F-2.7°C 15.5°F-9.2°C 61% 6.0 mph SW9.7 kmh SW 9.0 mph14.5 kmh 30.37 in1028.4 mb 0.00 in0.0 mm 0.00 in0.0 mm 0.00 in0.0 mm
08:55 PM 27.1°F-2.7°C 15.5°F-9.2°C 61% 2.0 mph SW3.2 kmh SW 6.0 mph9.7 kmh 30.37 in1028.4 mb 0.00 in0.0 mm 0.00 in0.0 mm 0.00 in0.0 mm
08:59 PM 27.0°F-2.8°C 15.7°F-9.1°C 62% 2.0 mph SW3.2 kmh SW 6.0 mph9.7 kmh 30.37 in1028.4 mb 0.00 in0.0 mm 0.00 in0.0 mm 0.00 in0.0 mm
09:05 PM 27.1°F-2.7°C 16.2°F-8.8°C 63% 6.0 mph SW9.7 kmh SW 6.0 mph9.7 kmh 30.38 in1028.8 mb 0.00 in0.0 mm 0.00 in0.0 mm 0.00 in0.0 mm
09:10 PM 27.0°F-2.8°C 15.7°F-9.1°C 62% 6.0 mph SW9.7 kmh SW 7.0 mph11.3 kmh 30.38 in1028.8 mb 0.00 in0.0 mm 0.00 in0.0 mm 0.00 in0.0 mm
09:15 PM 27.0°F-2.8°C 15.7°F-9.1°C 62% 3.0 mph SW4.8 kmh SW 6.0 mph9.7 kmh 30.38 in1028.8 mb 0.00 in0.0 mm 0.00 in0.0 mm 0.00 in0.0 mm
09:20 PM 26.9°F-2.8°C 15.6°F-9.1°C 62% 3.0 mph SW4.8 kmh SW 6.0 mph9.7 kmh 30.38 in1028.8 mb 0.00 in0.0 mm 0.00 in0.0 mm 0.00 in0.0 mm
09:25 PM 26.9°F-2.8°C 15.3°F-9.3°C 61% Calm Calm 5.0 mph8.0 kmh 30.38 in1028.8 mb 0.00 in0.0 mm 0.00 in0.0 mm 0.00 in0.0 mm
09:29 PM 26.8°F-2.9°C 15.2°F-9.3°C 61% 3.0 mph SW4.8 kmh SW 6.0 mph9.7 kmh 30.38 in1028.8 mb 0.00 in0.0 mm 0.00 in0.0 mm 0.00 in0.0 mm
09:34 PM 26.8°F-2.9°C 15.2°F-9.3°C 61% 5.0 mph SW8.0 kmh SW 6.0 mph9.7 kmh 30.38 in1028.8 mb 0.00 in0.0 mm 0.00 in0.0 mm 0.00 in0.0 mm
09:40 PM 26.7°F-2.9°C 15.1°F-9.4°C 61% 4.0 mph SW6.4 kmh SW 6.0 mph9.7 kmh 30.38 in1028.8 mb 0.00 in0.0 mm 0.00 in0.0 mm 0.00 in0.0 mm
09:45 PM 26.8°F-2.9°C 15.2°F-9.3°C 61% 2.0 mph SW3.2 kmh SW 5.0 mph8.0 kmh 30.38 in1028.8 mb 0.00 in0.0 mm 0.00 in0.0 mm 0.00 in0.0 mm
09:50 PM 26.7°F-2.9°C 15.1°F-9.4°C 61% 4.0 mph SW6.4 kmh SW 6.0 mph9.7 kmh 30.38 in1028.8 mb 0.00 in0.0 mm 0.00 in0.0 mm 0.00 in0.0 mm
09:54 PM 26.6°F-3.0°C 15.4°F-9.2°C 62% 3.0 mph WSW4.8 kmh WSW 3.0 mph4.8 kmh 30.38 in1028.8 mb 0.00 in0.0 mm 0.00 in0.0 mm 0.00 in0.0 mm
09:59 PM 26.6°F-3.0°C 15.0°F-9.4°C 61% Calm Calm 5.0 mph8.0 kmh 30.39 in1029.1 mb 0.00 in0.0 mm 0.00 in0.0 mm 0.00 in0.0 mm
10:05 PM 26.6°F-3.0°C 15.0°F-9.4°C 61% Calm Calm 5.0 mph8.0 kmh 30.39 in1029.1 mb 0.00 in0.0 mm 0.00 in0.0 mm 0.00 in0.0 mm
10:10 PM 26.5°F-3.1°C 15.3°F-9.3°C 62% 4.0 mph SW6.4 kmh SW 6.0 mph9.7 kmh 30.39 in1029.1 mb 0.00 in0.0 mm 0.00 in0.0 mm 0.00 in0.0 mm
10:14 PM 26.5°F-3.1°C 15.3°F-9.3°C 62% 4.0 mph SW6.4 kmh SW 5.0 mph8.0 kmh 30.39 in1029.1 mb 0.00 in0.0 mm 0.00 in0.0 mm 0.00 in0.0 mm
10:20 PM 26.5°F-3.1°C 15.3°F-9.3°C 62% 3.0 mph SW4.8 kmh SW 4.0 mph6.4 kmh 30.39 in1029.1 mb 0.00 in0.0 mm 0.00 in0.0 mm 0.00 in0.0 mm
10:24 PM 26.6°F-3.0°C 15.4°F-9.2°C 62% 1.0 mph W1.6 kmh W 3.0 mph4.8 kmh 30.38 in1028.8 mb 0.00 in0.0 mm 0.00 in0.0 mm 0.00 in0.0 mm
10:30 PM 26.6°F-3.0°C 15.4°F-9.2°C 62% 2.0 mph SW3.2 kmh SW 7.0 mph11.3 kmh 30.38 in1028.8 mb 0.00 in0.0 mm 0.00 in0.0 mm 0.00 in0.0 mm
10:35 PM 26.7°F-2.9°C 15.5°F-9.2°C 62% Calm Calm 2.0 mph3.2 kmh 30.38 in1028.8 mb 0.00 in0.0 mm 0.00 in0.0 mm 0.00 in0.0 mm
10:40 PM 26.7°F-2.9°C 15.5°F-9.2°C 62% 4.0 mph SW6.4 kmh SW 9.0 mph14.5 kmh 30.37 in1028.4 mb 0.00 in0.0 mm 0.00 in0.0 mm 0.00 in0.0 mm
10:44 PM 26.8°F-2.9°C 15.5°F-9.2°C 62% 4.0 mph SW6.4 kmh SW 8.0 mph12.9 kmh 30.37 in1028.4 mb 0.00 in0.0 mm 0.00 in0.0 mm 0.00 in0.0 mm
10:50 PM 26.9°F-2.8°C 15.6°F-9.1°C 62% 5.0 mph SW8.0 kmh SW 9.0 mph14.5 kmh 30.37 in1028.4 mb 0.00 in0.0 mm 0.00 in0.0 mm 0.00 in0.0 mm
10:55 PM 27.0°F-2.8°C 15.7°F-9.1°C 62% 6.0 mph SW9.7 kmh SW 11.0 mph17.7 kmh 30.37 in1028.4 mb 0.00 in0.0 mm 0.00 in0.0 mm 0.00 in0.0 mm
11:00 PM 27.0°F-2.8°C 15.4°F-9.2°C 61% 3.0 mph WSW4.8 kmh WSW 8.0 mph12.9 kmh 30.37 in1028.4 mb 0.00 in0.0 mm 0.00 in0.0 mm 0.00 in0.0 mm
11:04 PM 27.1°F-2.7°C 15.8°F-9.0°C 62% 10.0 mph SW16.1 kmh SW 10.0 mph16.1 kmh 30.37 in1028.4 mb 0.00 in0.0 mm 0.00 in0.0 mm 0.00 in0.0 mm
11:10 PM 27.1°F-2.7°C 15.8°F-9.0°C 62% 3.0 mph WSW4.8 kmh WSW 6.0 mph9.7 kmh 30.38 in1028.8 mb 0.00 in0.0 mm 0.00 in0.0 mm 0.00 in0.0 mm
11:15 PM 27.1°F-2.7°C 15.8°F-9.0°C 62% 3.0 mph SW4.8 kmh SW 4.0 mph6.4 kmh 30.38 in1028.8 mb 0.00 in0.0 mm 0.00 in0.0 mm 0.00 in0.0 mm
11:20 PM 27.1°F-2.7°C 16.2°F-8.8°C 63% 9.0 mph W14.5 kmh W 9.0 mph14.5 kmh 30.38 in1028.8 mb 0.00 in0.0 mm 0.00 in0.0 mm 0.00 in0.0 mm
11:25 PM 27.2°F-2.7°C 15.9°F-8.9°C 62% 4.0 mph SW6.4 kmh SW 11.0 mph17.7 kmh 30.37 in1028.4 mb 0.00 in0.0 mm 0.00 in0.0 mm 0.00 in0.0 mm
11:30 PM 27.2°F-2.7°C 15.9°F-8.9°C 62% 4.0 mph WSW6.4 kmh WSW 8.0 mph12.9 kmh 30.37 in1028.4 mb 0.00 in0.0 mm 0.00 in0.0 mm 0.00 in0.0 mm
11:35 PM 27.2°F-2.7°C 15.9°F-8.9°C 62% 3.0 mph SW4.8 kmh SW 5.0 mph8.0 kmh 30.37 in1028.4 mb 0.00 in0.0 mm 0.00 in0.0 mm 0.00 in0.0 mm
11:40 PM 27.2°F-2.7°C 15.9°F-8.9°C 62% 3.0 mph WSW4.8 kmh WSW 8.0 mph12.9 kmh 30.37 in1028.4 mb 0.00 in0.0 mm 0.00 in0.0 mm 0.00 in0.0 mm
11:45 PM 27.3°F-2.6°C 16.0°F-8.9°C 62% 1.0 mph SW1.6 kmh SW 9.0 mph14.5 kmh 30.38 in1028.8 mb 0.00 in0.0 mm 0.00 in0.0 mm 0.00 in0.0 mm
11:50 PM 27.3°F-2.6°C 16.0°F-8.9°C 62% Calm Calm 11.0 mph17.7 kmh 30.37 in1028.4 mb 0.00 in0.0 mm 0.00 in0.0 mm 0.00 in0.0 mm
11:55 PM 27.2°F-2.7°C 15.9°F-8.9°C 62% 4.0 mph WNW6.4 kmh WNW 8.0 mph12.9 kmh 30.37 in1028.4 mb 0.00 in0.0 mm 0.00 in0.0 mm 0.00 in0.0 mm